sensor_id;sensor_type;location;lat;lon;timestamp;temperature;humidity
74540;SHT31;66042;51.090;-115.340;2023-01-31T00:01:38;-6.61;41.98
74540;SHT31;66042;51.090;-115.340;2023-01-31T00:04:08;-6.65;42.17
74540;SHT31;66042;51.090;-115.340;2023-01-31T00:06:39;-6.69;42.28
74540;SHT31;66042;51.090;-115.340;2023-01-31T00:09:10;-6.76;42.63
74540;SHT31;66042;51.090;-115.340;2023-01-31T00:11:39;-6.82;42.89
74540;SHT31;66042;51.090;-115.340;2023-01-31T00:14:06;-6.88;43.12
74540;SHT31;66042;51.090;-115.340;2023-01-31T00:16:35;-6.95;43.37
74540;SHT31;66042;51.090;-115.340;2023-01-31T00:19:02;-7.01;43.45
74540;SHT31;66042;51.090;-115.340;2023-01-31T00:21:30;-7.06;43.42
74540;SHT31;66042;51.090;-115.340;2023-01-31T00:23:57;-7.10;43.57
74540;SHT31;66042;51.090;-115.340;2023-01-31T00:26:29;-7.12;43.73
74540;SHT31;66042;51.090;-115.340;2023-01-31T00:28:59;-7.15;43.80
74540;SHT31;66042;51.090;-115.340;2023-01-31T00:31:32;-7.21;44.11
74540;SHT31;66042;51.090;-115.340;2023-01-31T00:34:00;-7.25;44.27
74540;SHT31;66042;51.090;-115.340;2023-01-31T00:36:29;-7.29;44.24
74540;SHT31;66042;51.090;-115.340;2023-01-31T00:38:58;-7.32;44.25
74540;SHT31;66042;51.090;-115.340;2023-01-31T00:41:28;-7.38;44.62
74540;SHT31;66042;51.090;-115.340;2023-01-31T00:43:56;-7.42;44.64
74540;SHT31;66042;51.090;-115.340;2023-01-31T00:46:23;-7.44;44.95
74540;SHT31;66042;51.090;-115.340;2023-01-31T00:48:50;-7.44;44.89
74540;SHT31;66042;51.090;-115.340;2023-01-31T00:51:20;-7.46;45.20
74540;SHT31;66042;51.090;-115.340;2023-01-31T00:53:49;-7.49;45.45
74540;SHT31;66042;51.090;-115.340;2023-01-31T00:56:17;-7.51;45.78
74540;SHT31;66042;51.090;-115.340;2023-01-31T00:58:47;-7.54;46.13
74540;SHT31;66042;51.090;-115.340;2023-01-31T01:01:17;-7.56;46.39
74540;SHT31;66042;51.090;-115.340;2023-01-31T01:03:49;-7.59;46.70
74540;SHT31;66042;51.090;-115.340;2023-01-31T01:06:16;-7.62;46.99
74540;SHT31;66042;51.090;-115.340;2023-01-31T01:08:44;-7.63;47.15
74540;SHT31;66042;51.090;-115.340;2023-01-31T01:11:14;-7.65;47.20
74540;SHT31;66042;51.090;-115.340;2023-01-31T01:13:47;-7.68;47.38
74540;SHT31;66042;51.090;-115.340;2023-01-31T01:16:17;-7.69;47.51
74540;SHT31;66042;51.090;-115.340;2023-01-31T01:18:51;-7.70;47.67
74540;SHT31;66042;51.090;-115.340;2023-01-31T01:21:25;-7.71;48.01
74540;SHT31;66042;51.090;-115.340;2023-01-31T01:23:55;-7.70;47.98
74540;SHT31;66042;51.090;-115.340;2023-01-31T01:26:28;-7.70;48.23
74540;SHT31;66042;51.090;-115.340;2023-01-31T01:28:59;-7.71;48.38
74540;SHT31;66042;51.090;-115.340;2023-01-31T01:31:27;-7.72;48.49
74540;SHT31;66042;51.090;-115.340;2023-01-31T01:33:56;-7.73;48.72
74540;SHT31;66042;51.090;-115.340;2023-01-31T01:36:28;-7.72;48.79
74540;SHT31;66042;51.090;-115.340;2023-01-31T01:39:02;-7.73;48.90
74540;SHT31;66042;51.090;-115.340;2023-01-31T01:41:31;-7.75;49.13
74540;SHT31;66042;51.090;-115.340;2023-01-31T01:43:59;-7.79;49.35
74540;SHT31;66042;51.090;-115.340;2023-01-31T01:52:04;-7.84;49.98
74540;SHT31;66042;51.090;-115.340;2023-01-31T01:54:39;-7.82;50.04
74540;SHT31;66042;51.090;-115.340;2023-01-31T01:57:29;-7.81;50.23
74540;SHT31;66042;51.090;-115.340;2023-01-31T02:02:41;-7.86;50.47
74540;SHT31;66042;51.090;-115.340;2023-01-31T02:05:11;-7.88;50.69
74540;SHT31;66042;51.090;-115.340;2023-01-31T02:07:44;-7.89;50.66
74540;SHT31;66042;51.090;-115.340;2023-01-31T02:10:16;-7.92;51.12
74540;SHT31;66042;51.090;-115.340;2023-01-31T02:13:02;-7.97;51.44
74540;SHT31;66042;51.090;-115.340;2023-01-31T02:15:30;-7.99;51.76
74540;SHT31;66042;51.090;-115.340;2023-01-31T02:17:58;-8.02;52.05
74540;SHT31;66042;51.090;-115.340;2023-01-31T02:26:35;-8.02;52.04
74540;SHT31;66042;51.090;-115.340;2023-01-31T02:45:08;-7.96;52.00
74540;SHT31;66042;51.090;-115.340;2023-01-31T02:51:26;-7.93;52.12
74540;SHT31;66042;51.090;-115.340;2023-01-31T02:54:03;-7.97;52.00
74540;SHT31;66042;51.090;-115.340;2023-01-31T02:56:42;-7.99;52.17
74540;SHT31;66042;51.090;-115.340;2023-01-31T02:59:20;-8.04;52.20
74540;SHT31;66042;51.090;-115.340;2023-01-31T03:01:55;-8.11;52.41
74540;SHT31;66042;51.090;-115.340;2023-01-31T03:04:29;-8.07;52.56
74540;SHT31;66042;51.090;-115.340;2023-01-31T03:07:04;-8.02;52.41
74540;SHT31;66042;51.090;-115.340;2023-01-31T03:22:04;-7.93;52.44
74540;SHT31;66042;51.090;-115.340;2023-01-31T03:24:43;-7.99;52.40
74540;SHT31;66042;51.090;-115.340;2023-01-31T03:27:12;-7.99;52.11
74540;SHT31;66042;51.090;-115.340;2023-01-31T03:29:40;-7.98;52.07
74540;SHT31;66042;51.090;-115.340;2023-01-31T03:34:47;-7.99;52.07
74540;SHT31;66042;51.090;-115.340;2023-01-31T03:37:22;-8.01;52.31
74540;SHT31;66042;51.090;-115.340;2023-01-31T03:40:10;-8.03;52.16
74540;SHT31;66042;51.090;-115.340;2023-01-31T03:43:14;-8.03;52.13
74540;SHT31;66042;51.090;-115.340;2023-01-31T03:46:05;-8.00;52.13
74540;SHT31;66042;51.090;-115.340;2023-01-31T03:49:05;-8.01;52.06
74540;SHT31;66042;51.090;-115.340;2023-01-31T03:51:40;-8.01;51.81
74540;SHT31;66042;51.090;-115.340;2023-01-31T03:54:17;-8.02;51.80
74540;SHT31;66042;51.090;-115.340;2023-01-31T03:56:57;-8.04;51.96
74540;SHT31;66042;51.090;-115.340;2023-01-31T03:59:46;-8.07;52.11
74540;SHT31;66042;51.090;-115.340;2023-01-31T04:02:23;-8.12;52.23
74540;SHT31;66042;51.090;-115.340;2023-01-31T04:05:10;-8.19;52.32
74540;SHT31;66042;51.090;-115.340;2023-01-31T04:07:46;-8.28;52.59
74540;SHT31;66042;51.090;-115.340;2023-01-31T04:10:14;-8.36;52.71
74540;SHT31;66042;51.090;-115.340;2023-01-31T04:12:44;-8.41;52.48
74540;SHT31;66042;51.090;-115.340;2023-01-31T04:15:12;-8.42;52.67
74540;SHT31;66042;51.090;-115.340;2023-01-31T04:17:40;-8.44;52.84
74540;SHT31;66042;51.090;-115.340;2023-01-31T04:20:07;-8.50;53.05
74540;SHT31;66042;51.090;-115.340;2023-01-31T04:22:35;-8.56;53.26
74540;SHT31;66042;51.090;-115.340;2023-01-31T04:25:02;-8.60;53.37
74540;SHT31;66042;51.090;-115.340;2023-01-31T04:27:30;-8.64;53.28
74540;SHT31;66042;51.090;-115.340;2023-01-31T04:29:57;-8.65;53.23
74540;SHT31;66042;51.090;-115.340;2023-01-31T04:32:24;-8.67;53.19
74540;SHT31;66042;51.090;-115.340;2023-01-31T04:34:51;-8.67;53.24
74540;SHT31;66042;51.090;-115.340;2023-01-31T04:37:18;-8.69;53.34
74540;SHT31;66042;51.090;-115.340;2023-01-31T04:39:45;-8.69;53.26
74540;SHT31;66042;51.090;-115.340;2023-01-31T04:42:12;-8.73;53.33
74540;SHT31;66042;51.090;-115.340;2023-01-31T04:44:40;-8.76;53.25
74540;SHT31;66042;51.090;-115.340;2023-01-31T04:47:06;-8.79;53.34
74540;SHT31;66042;51.090;-115.340;2023-01-31T04:49:34;-8.84;53.43
74540;SHT31;66042;51.090;-115.340;2023-01-31T04:52:00;-8.90;53.41
74540;SHT31;66042;51.090;-115.340;2023-01-31T04:54:27;-8.96;53.48
74540;SHT31;66042;51.090;-115.340;2023-01-31T04:56:54;-8.99;53.37
74540;SHT31;66042;51.090;-115.340;2023-01-31T04:59:22;-9.01;53.18
74540;SHT31;66042;51.090;-115.340;2023-01-31T05:01:49;-9.05;53.48
74540;SHT31;66042;51.090;-115.340;2023-01-31T05:04:16;-9.10;53.52
74540;SHT31;66042;51.090;-115.340;2023-01-31T05:06:43;-9.12;53.56
74540;SHT31;66042;51.090;-115.340;2023-01-31T05:09:10;-9.17;53.71
74540;SHT31;66042;51.090;-115.340;2023-01-31T05:11:37;-9.20;53.66
74540;SHT31;66042;51.090;-115.340;2023-01-31T05:14:04;-9.24;53.69
74540;SHT31;66042;51.090;-115.340;2023-01-31T05:16:32;-9.27;53.80
74540;SHT31;66042;51.090;-115.340;2023-01-31T05:19:00;-9.30;53.75
74540;SHT31;66042;51.090;-115.340;2023-01-31T05:21:27;-9.33;53.92
74540;SHT31;66042;51.090;-115.340;2023-01-31T05:23:54;-9.34;53.80
74540;SHT31;66042;51.090;-115.340;2023-01-31T05:26:21;-9.35;53.71
74540;SHT31;66042;51.090;-115.340;2023-01-31T05:28:47;-9.37;53.86
74540;SHT31;66042;51.090;-115.340;2023-01-31T05:31:14;-9.39;53.82
74540;SHT31;66042;51.090;-115.340;2023-01-31T05:33:41;-9.41;53.98
74540;SHT31;66042;51.090;-115.340;2023-01-31T05:36:08;-9.42;54.09
74540;SHT31;66042;51.090;-115.340;2023-01-31T05:38:35;-9.45;54.07
74540;SHT31;66042;51.090;-115.340;2023-01-31T05:41:02;-9.45;54.06
74540;SHT31;66042;51.090;-115.340;2023-01-31T05:43:29;-9.47;54.18
74540;SHT31;66042;51.090;-115.340;2023-01-31T05:45:57;-9.48;54.03
74540;SHT31;66042;51.090;-115.340;2023-01-31T05:48:24;-9.48;54.09
74540;SHT31;66042;51.090;-115.340;2023-01-31T05:50:51;-9.48;54.12
74540;SHT31;66042;51.090;-115.340;2023-01-31T05:53:18;-9.49;54.15
74540;SHT31;66042;51.090;-115.340;2023-01-31T05:55:47;-9.52;54.31
74540;SHT31;66042;51.090;-115.340;2023-01-31T05:58:14;-9.55;54.31
74540;SHT31;66042;51.090;-115.340;2023-01-31T06:00:41;-9.56;54.26
74540;SHT31;66042;51.090;-115.340;2023-01-31T06:03:08;-9.57;54.42
74540;SHT31;66042;51.090;-115.340;2023-01-31T06:05:35;-9.60;54.40
74540;SHT31;66042;51.090;-115.340;2023-01-31T06:08:05;-9.60;54.24
74540;SHT31;66042;51.090;-115.340;2023-01-31T06:10:32;-9.60;54.25
74540;SHT31;66042;51.090;-115.340;2023-01-31T06:12:59;-9.59;54.20
74540;SHT31;66042;51.090;-115.340;2023-01-31T06:15:26;-9.60;54.18
74540;SHT31;66042;51.090;-115.340;2023-01-31T06:17:53;-9.61;54.34
74540;SHT31;66042;51.090;-115.340;2023-01-31T06:20:20;-9.65;54.38
74540;SHT31;66042;51.090;-115.340;2023-01-31T06:22:47;-9.67;54.30
74540;SHT31;66042;51.090;-115.340;2023-01-31T06:25:14;-9.71;54.31
74540;SHT31;66042;51.090;-115.340;2023-01-31T06:27:42;-9.73;54.30
74540;SHT31;66042;51.090;-115.340;2023-01-31T06:30:09;-9.77;54.23
74540;SHT31;66042;51.090;-115.340;2023-01-31T06:32:36;-9.81;54.33
74540;SHT31;66042;51.090;-115.340;2023-01-31T06:35:04;-9.85;54.38
74540;SHT31;66042;51.090;-115.340;2023-01-31T06:37:31;-9.88;54.28
74540;SHT31;66042;51.090;-115.340;2023-01-31T06:39:58;-9.90;54.34
74540;SHT31;66042;51.090;-115.340;2023-01-31T06:42:25;-9.91;54.41
74540;SHT31;66042;51.090;-115.340;2023-01-31T06:44:52;-9.93;54.31
74540;SHT31;66042;51.090;-115.340;2023-01-31T06:47:20;-9.93;54.33
74540;SHT31;66042;51.090;-115.340;2023-01-31T06:49:46;-9.94;54.31
74540;SHT31;66042;51.090;-115.340;2023-01-31T06:52:14;-9.94;54.41
74540;SHT31;66042;51.090;-115.340;2023-01-31T06:54:40;-9.96;54.37
74540;SHT31;66042;51.090;-115.340;2023-01-31T06:57:08;-10.00;54.33
74540;SHT31;66042;51.090;-115.340;2023-01-31T06:59:36;-10.02;54.32
74540;SHT31;66042;51.090;-115.340;2023-01-31T07:02:03;-10.03;54.42
74540;SHT31;66042;51.090;-115.340;2023-01-31T07:04:30;-10.03;54.29
74540;SHT31;66042;51.090;-115.340;2023-01-31T07:06:57;-10.04;54.30
74540;SHT31;66042;51.090;-115.340;2023-01-31T07:09:24;-10.06;54.38
74540;SHT31;66042;51.090;-115.340;2023-01-31T07:11:51;-10.11;54.49
74540;SHT31;66042;51.090;-115.340;2023-01-31T07:14:18;-10.14;54.55
74540;SHT31;66042;51.090;-115.340;2023-01-31T07:16:45;-10.18;54.69
74540;SHT31;66042;51.090;-115.340;2023-01-31T07:19:13;-10.21;54.79
74540;SHT31;66042;51.090;-115.340;2023-01-31T07:21:40;-10.25;54.85
74540;SHT31;66042;51.090;-115.340;2023-01-31T07:24:08;-10.26;54.77
74540;SHT31;66042;51.090;-115.340;2023-01-31T07:26:35;-10.29;54.85
74540;SHT31;66042;51.090;-115.340;2023-01-31T07:29:02;-10.32;54.97
74540;SHT31;66042;51.090;-115.340;2023-01-31T07:31:29;-10.34;55.12
74540;SHT31;66042;51.090;-115.340;2023-01-31T07:33:56;-10.38;55.18
74540;SHT31;66042;51.090;-115.340;2023-01-31T07:36:24;-10.40;55.28
74540;SHT31;66042;51.090;-115.340;2023-01-31T07:38:52;-10.40;55.32
74540;SHT31;66042;51.090;-115.340;2023-01-31T07:41:20;-10.42;55.38
74540;SHT31;66042;51.090;-115.340;2023-01-31T07:43:49;-10.42;55.36
74540;SHT31;66042;51.090;-115.340;2023-01-31T07:46:18;-10.43;55.45
74540;SHT31;66042;51.090;-115.340;2023-01-31T07:48:46;-10.45;55.51
74540;SHT31;66042;51.090;-115.340;2023-01-31T07:51:13;-10.47;55.44
74540;SHT31;66042;51.090;-115.340;2023-01-31T07:53:40;-10.48;55.51
74540;SHT31;66042;51.090;-115.340;2023-01-31T07:56:09;-10.54;55.78
74540;SHT31;66042;51.090;-115.340;2023-01-31T07:58:39;-10.58;55.83
74540;SHT31;66042;51.090;-115.340;2023-01-31T08:01:13;-10.61;55.64
74540;SHT31;66042;51.090;-115.340;2023-01-31T08:04:00;-10.61;55.66
74540;SHT31;66042;51.090;-115.340;2023-01-31T08:06:28;-10.60;55.71
74540;SHT31;66042;51.090;-115.340;2023-01-31T08:08:56;-10.58;55.65
74540;SHT31;66042;51.090;-115.340;2023-01-31T08:11:25;-10.57;55.62
74540;SHT31;66042;51.090;-115.340;2023-01-31T08:13:52;-10.55;55.63
74540;SHT31;66042;51.090;-115.340;2023-01-31T08:16:19;-10.55;55.53
74540;SHT31;66042;51.090;-115.340;2023-01-31T08:18:50;-10.56;55.54
74540;SHT31;66042;51.090;-115.340;2023-01-31T08:21:18;-10.55;55.48
74540;SHT31;66042;51.090;-115.340;2023-01-31T08:23:45;-10.55;55.36
74540;SHT31;66042;51.090;-115.340;2023-01-31T08:26:16;-10.57;55.27
74540;SHT31;66042;51.090;-115.340;2023-01-31T08:28:46;-10.59;55.43
74540;SHT31;66042;51.090;-115.340;2023-01-31T08:31:20;-10.57;55.42
74540;SHT31;66042;51.090;-115.340;2023-01-31T08:33:50;-10.54;55.33
74540;SHT31;66042;51.090;-115.340;2023-01-31T08:36:21;-10.49;55.31
74540;SHT31;66042;51.090;-115.340;2023-01-31T08:38:50;-10.46;55.26
74540;SHT31;66042;51.090;-115.340;2023-01-31T08:41:19;-10.44;55.14
74540;SHT31;66042;51.090;-115.340;2023-01-31T08:43:48;-10.41;55.07
74540;SHT31;66042;51.090;-115.340;2023-01-31T08:46:16;-10.39;55.00
74540;SHT31;66042;51.090;-115.340;2023-01-31T08:48:43;-10.38;54.90
74540;SHT31;66042;51.090;-115.340;2023-01-31T08:51:11;-10.39;54.86
74540;SHT31;66042;51.090;-115.340;2023-01-31T08:53:40;-10.39;54.87
74540;SHT31;66042;51.090;-115.340;2023-01-31T08:56:09;-10.39;54.90
74540;SHT31;66042;51.090;-115.340;2023-01-31T08:58:38;-10.39;54.84
74540;SHT31;66042;51.090;-115.340;2023-01-31T09:01:09;-10.41;54.90
74540;SHT31;66042;51.090;-115.340;2023-01-31T09:03:41;-10.42;55.06
74540;SHT31;66042;51.090;-115.340;2023-01-31T09:06:10;-10.44;55.00
74540;SHT31;66042;51.090;-115.340;2023-01-31T09:08:43;-10.46;55.09
74540;SHT31;66042;51.090;-115.340;2023-01-31T09:11:11;-10.48;55.16
74540;SHT31;66042;51.090;-115.340;2023-01-31T09:13:43;-10.50;55.25
74540;SHT31;66042;51.090;-115.340;2023-01-31T09:16:12;-10.50;55.27
74540;SHT31;66042;51.090;-115.340;2023-01-31T09:18:40;-10.50;55.27
74540;SHT31;66042;51.090;-115.340;2023-01-31T09:21:09;-10.47;55.22
74540;SHT31;66042;51.090;-115.340;2023-01-31T09:23:41;-10.45;55.22
74540;SHT31;66042;51.090;-115.340;2023-01-31T09:26:12;-10.43;55.13
74540;SHT31;66042;51.090;-115.340;2023-01-31T09:28:40;-10.42;55.02
74540;SHT31;66042;51.090;-115.340;2023-01-31T09:31:12;-10.39;54.98
74540;SHT31;66042;51.090;-115.340;2023-01-31T09:33:41;-10.39;54.93
74540;SHT31;66042;51.090;-115.340;2023-01-31T09:36:09;-10.38;54.91
74540;SHT31;66042;51.090;-115.340;2023-01-31T09:38:39;-10.37;54.89
74540;SHT31;66042;51.090;-115.340;2023-01-31T09:41:27;-10.36;54.92
74540;SHT31;66042;51.090;-115.340;2023-01-31T09:44:16;-10.35;55.00
74540;SHT31;66042;51.090;-115.340;2023-01-31T09:49:50;-10.31;54.79
74540;SHT31;66042;51.090;-115.340;2023-01-31T09:52:25;-10.31;54.88
74540;SHT31;66042;51.090;-115.340;2023-01-31T09:54:53;-10.31;54.76
74540;SHT31;66042;51.090;-115.340;2023-01-31T09:58:05;-10.30;54.84
74540;SHT31;66042;51.090;-115.340;2023-01-31T10:00:29;-10.30;54.88
74540;SHT31;66042;51.090;-115.340;2023-01-31T10:06:13;-10.31;54.80
74540;SHT31;66042;51.090;-115.340;2023-01-31T10:09:13;-10.29;54.77
74540;SHT31;66042;51.090;-115.340;2023-01-31T10:11:44;-10.29;54.66
74540;SHT31;66042;51.090;-115.340;2023-01-31T10:14:34;-10.29;54.71
74540;SHT31;66042;51.090;-115.340;2023-01-31T10:17:14;-10.30;54.72
74540;SHT31;66042;51.090;-115.340;2023-01-31T10:23:25;-10.30;54.80
74540;SHT31;66042;51.090;-115.340;2023-01-31T10:26:13;-10.29;54.76
74540;SHT31;66042;51.090;-115.340;2023-01-31T10:28:54;-10.30;54.61
74540;SHT31;66042;51.090;-115.340;2023-01-31T10:31:52;-10.30;54.63
74540;SHT31;66042;51.090;-115.340;2023-01-31T10:34:44;-10.33;54.80
74540;SHT31;66042;51.090;-115.340;2023-01-31T10:37:24;-10.35;54.68
74540;SHT31;66042;51.090;-115.340;2023-01-31T10:40:32;-10.37;54.78
74540;SHT31;66042;51.090;-115.340;2023-01-31T10:43:08;-10.40;54.76
74540;SHT31;66042;51.090;-115.340;2023-01-31T10:45:38;-10.41;54.73
74540;SHT31;66042;51.090;-115.340;2023-01-31T10:48:27;-10.41;54.71
74540;SHT31;66042;51.090;-115.340;2023-01-31T10:56:43;-10.43;54.72
74540;SHT31;66042;51.090;-115.340;2023-01-31T10:59:30;-10.43;54.79
74540;SHT31;66042;51.090;-115.340;2023-01-31T11:02:23;-10.45;54.67
74540;SHT31;66042;51.090;-115.340;2023-01-31T11:04:57;-10.45;54.60
74540;SHT31;66042;51.090;-115.340;2023-01-31T11:07:28;-10.46;54.69
74540;SHT31;66042;51.090;-115.340;2023-01-31T11:09:56;-10.48;54.67
74540;SHT31;66042;51.090;-115.340;2023-01-31T11:12:57;-10.49;54.63
74540;SHT31;66042;51.090;-115.340;2023-01-31T11:15:25;-10.50;54.83
74540;SHT31;66042;51.090;-115.340;2023-01-31T11:18:00;-10.50;54.78
74540;SHT31;66042;51.090;-115.340;2023-01-31T11:20:29;-10.49;54.70
74540;SHT31;66042;51.090;-115.340;2023-01-31T11:23:02;-10.49;54.74
74540;SHT31;66042;51.090;-115.340;2023-01-31T11:25:32;-10.49;54.71
74540;SHT31;66042;51.090;-115.340;2023-01-31T11:28:00;-10.50;54.73
74540;SHT31;66042;51.090;-115.340;2023-01-31T11:30:49;-10.50;54.73
74540;SHT31;66042;51.090;-115.340;2023-01-31T11:36:16;-10.55;54.72
74540;SHT31;66042;51.090;-115.340;2023-01-31T11:38:50;-10.57;54.84
74540;SHT31;66042;51.090;-115.340;2023-01-31T11:44:12;-10.63;54.91
74540;SHT31;66042;51.090;-115.340;2023-01-31T11:46:55;-10.62;55.00
74540;SHT31;66042;51.090;-115.340;2023-01-31T11:52:13;-10.61;55.09
74540;SHT31;66042;51.090;-115.340;2023-01-31T11:54:55;-10.61;55.10
74540;SHT31;66042;51.090;-115.340;2023-01-31T11:57:38;-10.59;55.19
74540;SHT31;66042;51.090;-115.340;2023-01-31T12:05:40;-10.63;55.10
74540;SHT31;66042;51.090;-115.340;2023-01-31T12:11:43;-10.67;55.20
74540;SHT31;66042;51.090;-115.340;2023-01-31T12:16:43;-10.78;55.25
74540;SHT31;66042;51.090;-115.340;2023-01-31T12:24:47;-10.82;55.42
74540;SHT31;66042;51.090;-115.340;2023-01-31T12:28:05;-10.83;55.46
74540;SHT31;66042;51.090;-115.340;2023-01-31T12:31:03;-10.85;55.32
74540;SHT31;66042;51.090;-115.340;2023-01-31T12:37:06;-10.91;55.46
74540;SHT31;66042;51.090;-115.340;2023-01-31T13:01:03;-11.21;55.93
74540;SHT31;66042;51.090;-115.340;2023-01-31T13:06:50;-11.25;56.00
74540;SHT31;66042;51.090;-115.340;2023-01-31T13:09:33;-11.24;56.02
74540;SHT31;66042;51.090;-115.340;2023-01-31T13:14:40;-11.25;55.96
74540;SHT31;66042;51.090;-115.340;2023-01-31T13:17:13;-11.27;56.02
74540;SHT31;66042;51.090;-115.340;2023-01-31T13:23:18;-11.35;56.07
74540;SHT31;66042;51.090;-115.340;2023-01-31T13:29:13;-11.36;56.40
74540;SHT31;66042;51.090;-115.340;2023-01-31T13:37:53;-11.37;56.58
74540;SHT31;66042;51.090;-115.340;2023-01-31T13:40:32;-11.36;56.45
74540;SHT31;66042;51.090;-115.340;2023-01-31T13:43:12;-11.38;56.55
74540;SHT31;66042;51.090;-115.340;2023-01-31T13:45:42;-11.39;56.60
74540;SHT31;66042;51.090;-115.340;2023-01-31T13:54:27;-11.39;56.65
74540;SHT31;66042;51.090;-115.340;2023-01-31T13:57:29;-11.39;56.65
74540;SHT31;66042;51.090;-115.340;2023-01-31T14:03:17;-11.39;56.70
74540;SHT31;66042;51.090;-115.340;2023-01-31T14:05:50;-11.39;56.64
74540;SHT31;66042;51.090;-115.340;2023-01-31T14:08:34;-11.40;56.65
74540;SHT31;66042;51.090;-115.340;2023-01-31T14:13:45;-11.42;56.72
74540;SHT31;66042;51.090;-115.340;2023-01-31T14:19:29;-11.42;57.01
74540;SHT31;66042;51.090;-115.340;2023-01-31T14:27:32;-11.35;56.97
74540;SHT31;66042;51.090;-115.340;2023-01-31T14:42:32;-11.34;56.51
74540;SHT31;66042;51.090;-115.340;2023-01-31T14:45:25;-11.40;56.65
74540;SHT31;66042;51.090;-115.340;2023-01-31T14:57:59;-11.53;57.24
74540;SHT31;66042;51.090;-115.340;2023-01-31T15:00:30;-11.50;57.37
74540;SHT31;66042;51.090;-115.340;2023-01-31T15:05:39;-11.44;57.17
74540;SHT31;66042;51.090;-115.340;2023-01-31T15:13:36;-11.41;57.05
74540;SHT31;66042;51.090;-115.340;2023-01-31T15:16:23;-11.40;57.29
74540;SHT31;66042;51.090;-115.340;2023-01-31T15:21:49;-11.39;57.18
74540;SHT31;66042;51.090;-115.340;2023-01-31T15:24:24;-11.39;57.30
74540;SHT31;66042;51.090;-115.340;2023-01-31T15:26:59;-11.40;57.27
74540;SHT31;66042;51.090;-115.340;2023-01-31T15:29:35;-11.37;57.23
74540;SHT31;66042;51.090;-115.340;2023-01-31T15:32:30;-11.34;57.28
74540;SHT31;66042;51.090;-115.340;2023-01-31T15:35:33;-11.30;57.31
74540;SHT31;66042;51.090;-115.340;2023-01-31T15:41:24;-11.17;57.03
74540;SHT31;66042;51.090;-115.340;2023-01-31T15:44:23;-11.12;56.83
74540;SHT31;66042;51.090;-115.340;2023-01-31T15:46:54;-11.06;56.86
74540;SHT31;66042;51.090;-115.340;2023-01-31T15:49:32;-11.05;56.87
74540;SHT31;66042;51.090;-115.340;2023-01-31T15:52:13;-11.06;56.89
74540;SHT31;66042;51.090;-115.340;2023-01-31T15:54:56;-11.06;56.81
74540;SHT31;66042;51.090;-115.340;2023-01-31T15:57:37;-11.04;56.87
74540;SHT31;66042;51.090;-115.340;2023-01-31T16:02:52;-10.93;56.68
74540;SHT31;66042;51.090;-115.340;2023-01-31T16:05:33;-10.88;56.66
74540;SHT31;66042;51.090;-115.340;2023-01-31T16:08:05;-10.82;56.69
74540;SHT31;66042;51.090;-115.340;2023-01-31T16:10:54;-10.75;56.50
74540;SHT31;66042;51.090;-115.340;2023-01-31T16:13:23;-10.69;56.33
74540;SHT31;66042;51.090;-115.340;2023-01-31T16:15:52;-10.64;56.20
74540;SHT31;66042;51.090;-115.340;2023-01-31T16:18:20;-10.63;56.12
74540;SHT31;66042;51.090;-115.340;2023-01-31T16:20:49;-10.58;56.04
74540;SHT31;66042;51.090;-115.340;2023-01-31T16:23:26;-10.54;56.04
74540;SHT31;66042;51.090;-115.340;2023-01-31T16:28:53;-10.38;55.81
74540;SHT31;66042;51.090;-115.340;2023-01-31T16:31:26;-10.34;55.46
74540;SHT31;66042;51.090;-115.340;2023-01-31T16:34:00;-10.29;55.53
74540;SHT31;66042;51.090;-115.340;2023-01-31T16:36:50;-10.23;55.53
74540;SHT31;66042;51.090;-115.340;2023-01-31T16:44:48;-10.06;54.99
74540;SHT31;66042;51.090;-115.340;2023-01-31T16:52:49;-9.83;54.32
74540;SHT31;66042;51.090;-115.340;2023-01-31T16:55:19;-9.73;54.25
74540;SHT31;66042;51.090;-115.340;2023-01-31T16:57:50;-9.65;53.91
74540;SHT31;66042;51.090;-115.340;2023-01-31T17:02:53;-9.48;53.47
74540;SHT31;66042;51.090;-115.340;2023-01-31T17:05:26;-9.39;53.34
74540;SHT31;66042;51.090;-115.340;2023-01-31T17:08:18;-9.25;53.21
74540;SHT31;66042;51.090;-115.340;2023-01-31T17:10:47;-9.11;53.09
74540;SHT31;66042;51.090;-115.340;2023-01-31T17:13:20;-8.98;53.08
74540;SHT31;66042;51.090;-115.340;2023-01-31T17:15:51;-8.85;52.56
74540;SHT31;66042;51.090;-115.340;2023-01-31T17:18:18;-8.74;52.27
74540;SHT31;66042;51.090;-115.340;2023-01-31T17:20:45;-8.70;51.78
74540;SHT31;66042;51.090;-115.340;2023-01-31T17:23:13;-8.67;52.05
74540;SHT31;66042;51.090;-115.340;2023-01-31T17:25:41;-8.59;52.11
74540;SHT31;66042;51.090;-115.340;2023-01-31T17:28:08;-8.51;51.84
74540;SHT31;66042;51.090;-115.340;2023-01-31T17:30:40;-8.43;51.52
74540;SHT31;66042;51.090;-115.340;2023-01-31T17:33:12;-8.36;51.24
74540;SHT31;66042;51.090;-115.340;2023-01-31T17:35:49;-8.29;51.09
74540;SHT31;66042;51.090;-115.340;2023-01-31T17:38:16;-8.24;50.79
74540;SHT31;66042;51.090;-115.340;2023-01-31T17:40:43;-8.15;50.82
74540;SHT31;66042;51.090;-115.340;2023-01-31T17:43:17;-8.03;50.63
74540;SHT31;66042;51.090;-115.340;2023-01-31T17:45:47;-7.91;50.54
74540;SHT31;66042;51.090;-115.340;2023-01-31T17:48:14;-7.80;50.27
74540;SHT31;66042;51.090;-115.340;2023-01-31T17:50:42;-7.68;50.02
74540;SHT31;66042;51.090;-115.340;2023-01-31T17:53:11;-7.55;50.13
74540;SHT31;66042;51.090;-115.340;2023-01-31T17:55:38;-7.45;49.75
74540;SHT31;66042;51.090;-115.340;2023-01-31T17:58:15;-7.31;49.73
74540;SHT31;66042;51.090;-115.340;2023-01-31T18:00:43;-7.18;49.09
74540;SHT31;66042;51.090;-115.340;2023-01-31T18:03:21;-7.08;49.01
74540;SHT31;66042;51.090;-115.340;2023-01-31T18:05:51;-6.97;48.88
74540;SHT31;66042;51.090;-115.340;2023-01-31T18:08:18;-6.86;48.14
74540;SHT31;66042;51.090;-115.340;2023-01-31T18:10:47;-6.74;47.78
74540;SHT31;66042;51.090;-115.340;2023-01-31T18:13:13;-6.62;47.80
74540;SHT31;66042;51.090;-115.340;2023-01-31T18:15:40;-6.51;47.24
74540;SHT31;66042;51.090;-115.340;2023-01-31T18:18:07;-6.47;46.87
74540;SHT31;66042;51.090;-115.340;2023-01-31T18:20:35;-6.41;46.84
74540;SHT31;66042;51.090;-115.340;2023-01-31T18:23:04;-6.27;46.57
74540;SHT31;66042;51.090;-115.340;2023-01-31T18:25:31;-6.09;46.22
74540;SHT31;66042;51.090;-115.340;2023-01-31T18:27:58;-5.93;45.83
74540;SHT31;66042;51.090;-115.340;2023-01-31T18:30:25;-5.77;45.21
74540;SHT31;66042;51.090;-115.340;2023-01-31T18:32:52;-5.63;44.84
74540;SHT31;66042;51.090;-115.340;2023-01-31T18:35:19;-5.26;44.49
74540;SHT31;66042;51.090;-115.340;2023-01-31T18:37:46;-4.44;43.12
74540;SHT31;66042;51.090;-115.340;2023-01-31T18:40:14;-4.44;42.35
74540;SHT31;66042;51.090;-115.340;2023-01-31T18:42:41;-4.48;42.77
74540;SHT31;66042;51.090;-115.340;2023-01-31T18:45:08;-4.45;42.45